createdAt,value
2022-11-02T00:01:16.841Z,8.68
2022-11-02T00:04:22.793Z,8.74
2022-11-02T00:07:28.503Z,8.81
2022-11-02T00:10:34.222Z,8.70
2022-11-02T00:13:39.895Z,8.61
2022-11-02T00:16:48.347Z,8.61
2022-11-02T00:19:54.321Z,8.64
2022-11-02T00:23:06.791Z,8.56
2022-11-02T00:26:13.376Z,8.35
2022-11-02T00:29:21.094Z,8.23
2022-11-02T00:32:29.931Z,8.36
2022-11-02T00:35:37.758Z,8.36
2022-11-02T00:38:43.793Z,8.39
2022-11-02T00:41:49.531Z,8.54
2022-11-02T00:44:55.398Z,8.55
2022-11-02T00:48:04.018Z,8.55
2022-11-02T00:51:09.969Z,8.63
2022-11-02T00:54:15.926Z,8.58
2022-11-02T00:57:21.847Z,8.56
2022-11-02T01:00:27.612Z,8.66
2022-11-02T01:03:36.048Z,8.72
2022-11-02T01:06:41.711Z,8.63
2022-11-02T01:09:47.419Z,8.84
2022-11-02T01:12:57.337Z,8.86
2022-11-02T01:16:14.787Z,8.87
2022-11-02T01:19:24.552Z,8.95
2022-11-02T01:22:39.005Z,8.99
2022-11-02T01:25:48.809Z,8.90
2022-11-02T01:28:59.250Z,8.70
2022-11-02T01:32:11.137Z,8.79
2022-11-02T01:35:19.792Z,8.76
2022-11-02T01:38:25.631Z,8.79
2022-11-02T01:41:31.518Z,8.75
2022-11-02T01:44:41.294Z,8.58
2022-11-02T01:47:52.323Z,8.66
2022-11-02T01:51:04.394Z,8.58
2022-11-02T01:54:24.668Z,8.46
2022-11-02T01:57:34.573Z,8.52
2022-11-02T02:00:42.208Z,8.57
2022-11-02T02:03:50.303Z,8.50
2022-11-02T02:07:08.684Z,8.40
2022-11-02T02:10:15.558Z,8.45
2022-11-02T02:13:22.917Z,8.38
2022-11-02T02:21:01.623Z,8.25
2022-11-02T02:24:32.261Z,8.17
2022-11-02T02:28:07.481Z,8.20
2022-11-02T02:31:25.093Z,8.26
2022-11-02T02:34:42.115Z,8.30
2022-11-02T02:37:58.538Z,8.41
2022-11-02T02:41:17.773Z,8.52
2022-11-02T02:44:36.237Z,8.53
2022-11-02T02:47:52.819Z,8.51
2022-11-02T02:51:08.228Z,8.35
2022-11-02T02:54:24.670Z,8.22
2022-11-02T02:57:37.685Z,8.19
2022-11-02T03:00:48.705Z,8.12
2022-11-02T03:03:55.474Z,8.11
2022-11-02T03:07:07.958Z,8.16
2022-11-02T03:10:25.178Z,8.29
2022-11-02T03:14:06.514Z,8.37
2022-11-02T03:17:21.903Z,8.30
2022-11-02T03:20:47.450Z,8.26
2022-11-02T03:24:04.944Z,8.11
2022-11-02T03:27:25.992Z,8.18
2022-11-02T03:30:45.140Z,8.23
2022-11-02T03:34:11.608Z,8.15
2022-11-02T03:37:25.103Z,8.16
2022-11-02T03:40:42.380Z,8.17
2022-11-02T03:43:54.814Z,7.97
2022-11-02T03:47:04.091Z,7.99
2022-11-02T03:50:21.211Z,7.87
2022-11-02T03:53:41.942Z,7.96
2022-11-02T03:56:54.166Z,7.91
2022-11-02T04:00:11.617Z,8.06
2022-11-02T04:03:27.081Z,8.12
2022-11-02T04:06:37.972Z,8.08
2022-11-02T04:09:44.616Z,8.11
2022-11-02T04:13:05.660Z,7.99
2022-11-02T04:16:11.435Z,8.11
2022-11-02T04:19:36.836Z,8.23
2022-11-02T04:23:05.529Z,8.47
2022-11-02T04:26:11.273Z,8.45
2022-11-02T04:29:21.797Z,8.51
2022-11-02T04:32:40.617Z,8.50
2022-11-02T04:35:51.333Z,8.63
2022-11-02T04:38:58.674Z,8.73
2022-11-02T04:42:08.925Z,8.75
2022-11-02T04:45:17.518Z,8.79
2022-11-02T04:48:23.122Z,8.86
2022-11-02T04:51:31.757Z,8.90
2022-11-02T04:54:40.250Z,8.93
2022-11-02T04:57:48.445Z,8.81
2022-11-02T05:00:54.393Z,8.70
2022-11-02T05:04:00.697Z,8.74
2022-11-02T05:07:11.363Z,8.66
2022-11-02T05:10:23.613Z,8.70
2022-11-02T05:13:30.768Z,8.43
2022-11-02T05:16:38.570Z,8.49
2022-11-02T05:19:44.587Z,8.52
2022-11-02T05:22:50.352Z,8.41
2022-11-02T05:26:03.331Z,8.44
2022-11-02T05:29:10.901Z,8.58
2022-11-02T05:32:16.679Z,8.39
2022-11-02T05:35:22.401Z,8.38
2022-11-02T05:38:29.828Z,8.14
2022-11-02T05:41:40.930Z,7.98
2022-11-02T05:44:46.869Z,7.89
2022-11-02T05:47:52.846Z,7.75
2022-11-02T05:51:00.193Z,7.57
2022-11-02T05:54:18.053Z,7.38
2022-11-02T05:57:27.052Z,7.37
2022-11-02T06:00:32.718Z,7.41
2022-11-02T06:03:41.086Z,7.48
2022-11-02T06:06:47.324Z,7.41
2022-11-02T06:09:53.099Z,7.18
2022-11-02T06:13:06.575Z,7.40
2022-11-02T06:16:29.010Z,7.57
2022-11-02T06:19:34.618Z,7.70
2022-11-02T06:22:44.446Z,7.76
2022-11-02T06:26:05.218Z,7.96
2022-11-02T06:29:30.424Z,8.23
2022-11-02T06:32:50.600Z,8.43
2022-11-02T06:36:08.783Z,8.73
2022-11-02T06:39:27.873Z,8.87
2022-11-02T06:43:03.342Z,8.99
2022-11-02T06:46:35.716Z,9.23
2022-11-02T06:49:59.038Z,9.39
2022-11-02T06:53:04.935Z,9.47
2022-11-02T06:56:12.641Z,9.53
2022-11-02T06:59:29.853Z,9.72
2022-11-02T07:02:38.521Z,9.79
2022-11-02T07:05:44.251Z,10.10
2022-11-02T07:08:49.890Z,10.34
2022-11-02T07:12:13.884Z,10.85
2022-11-02T07:15:20.280Z,11.41
2022-11-02T07:18:29.861Z,12.22
2022-11-02T07:21:35.670Z,12.89
2022-11-02T07:24:41.453Z,13.48
2022-11-02T07:27:53.914Z,14.29
2022-11-02T07:31:07.069Z,14.74
2022-11-02T07:34:21.283Z,15.45
2022-11-02T07:37:27.013Z,16.11
2022-11-02T07:40:35.062Z,16.67
2022-11-02T07:43:43.277Z,16.64
2022-11-02T07:47:12.933Z,16.86
2022-11-02T07:50:29.961Z,17.17
2022-11-02T07:53:36.570Z,17.70
2022-11-02T07:56:42.283Z,18.36
2022-11-02T07:59:47.969Z,17.73
2022-11-02T08:02:58.247Z,17.71
2022-11-02T08:06:07.480Z,18.10
2022-11-02T08:09:13.539Z,18.05
2022-11-02T08:12:19.277Z,17.82
2022-11-02T08:15:30.691Z,17.57
2022-11-02T08:18:36.577Z,17.23
2022-11-02T08:21:44.831Z,17.27
2022-11-02T08:24:50.600Z,17.46
2022-11-02T08:28:01.022Z,17.78
2022-11-02T08:31:10.345Z,17.70
2022-11-02T08:34:16.282Z,17.38
2022-11-02T08:37:24.570Z,17.91
2022-11-02T08:40:30.972Z,17.99
2022-11-02T08:43:36.957Z,17.78
2022-11-02T08:46:44.486Z,17.45
2022-11-02T08:49:51.900Z,17.82
2022-11-02T08:53:00.259Z,17.83
2022-11-02T08:56:10.083Z,17.23
2022-11-02T08:59:16.021Z,17.35
2022-11-02T09:02:21.895Z,18.13
2022-11-02T09:05:27.801Z,18.23
2022-11-02T09:08:38.032Z,17.81
2022-11-02T09:11:45.638Z,17.81
2022-11-02T09:14:51.368Z,18.27
2022-11-02T09:17:57.364Z,18.36
2022-11-02T09:21:06.218Z,17.94
2022-11-02T09:24:14.891Z,18.95
2022-11-02T09:27:20.546Z,19.14
2022-11-02T09:30:27.183Z,19.73
2022-11-02T09:33:34.397Z,20.16
2022-11-02T09:36:40.150Z,20.27
2022-11-02T09:39:59.104Z,20.59
2022-11-02T09:43:21.545Z,20.23
2022-11-02T09:46:34.180Z,20.49
2022-11-02T09:49:40.559Z,21.04
2022-11-02T09:52:53.056Z,21.02
2022-11-02T09:56:07.999Z,20.41
2022-11-02T09:59:18.985Z,20.10
2022-11-02T10:02:55.752Z,19.97
2022-11-02T10:06:15.840Z,20.18
2022-11-02T10:09:36.514Z,20.24
2022-11-02T10:13:08.128Z,20.88
2022-11-02T10:16:22.611Z,21.06
2022-11-02T10:19:33.675Z,21.14
2022-11-02T10:22:45.475Z,21.53
2022-11-02T10:25:52.359Z,21.53
2022-11-02T10:29:15.139Z,21.94
2022-11-02T10:32:21.162Z,22.05
2022-11-02T10:35:57.689Z,21.43
2022-11-02T10:39:28.329Z,20.91
2022-11-02T10:42:58.683Z,21.04
2022-11-02T10:46:33.115Z,20.66
2022-11-02T10:50:14.692Z,20.45
2022-11-02T10:53:40.500Z,20.45
2022-11-02T10:56:49.642Z,20.40
2022-11-02T11:00:27.069Z,20.06
2022-11-02T11:03:35.258Z,20.40
2022-11-02T11:06:45.565Z,20.31
2022-11-02T11:09:57.039Z,20.11
2022-11-02T11:13:03.988Z,19.73
2022-11-02T11:16:14.788Z,19.22
2022-11-02T11:19:39.180Z,19.28
2022-11-02T11:22:45.802Z,19.40
2022-11-02T11:26:02.133Z,19.15
2022-11-02T11:29:26.258Z,19.20
2022-11-02T11:32:35.465Z,19.76
2022-11-02T11:35:50.121Z,20.03
2022-11-02T11:39:01.822Z,20.02
2022-11-02T11:42:18.235Z,19.82
2022-11-02T11:45:29.166Z,20.25
2022-11-02T11:48:42.508Z,20.73
2022-11-02T11:51:55.764Z,21.08
2022-11-02T11:55:03.548Z,20.64
2022-11-02T11:58:16.830Z,20.61
2022-11-02T12:01:25.384Z,20.41
2022-11-02T12:04:35.163Z,20.14
2022-11-02T12:08:16.875Z,20.55
2022-11-02T12:11:42.553Z,20.00
2022-11-02T12:15:10.356Z,19.57
2022-11-02T12:18:43.759Z,18.95
2022-11-02T12:22:09.634Z,18.52
2022-11-02T12:25:47.365Z,17.66
2022-11-02T12:29:19.478Z,17.30
2022-11-02T12:33:01.355Z,16.79
2022-11-02T12:36:31.203Z,15.94
2022-11-02T12:40:06.398Z,16.21
2022-11-02T12:43:39.891Z,16.80
2022-11-02T12:46:58.989Z,16.43
2022-11-02T12:50:21.479Z,16.06
2022-11-02T12:53:45.184Z,15.62
2022-11-02T12:56:54.768Z,15.35
2022-11-02T13:00:09.837Z,15.61
2022-11-02T13:03:38.726Z,15.30
2022-11-02T13:06:51.583Z,14.89
2022-11-02T13:10:08.997Z,14.86
2022-11-02T13:13:21.097Z,14.84
2022-11-02T13:16:44.220Z,14.85
2022-11-02T13:19:58.510Z,15.18
2022-11-02T13:23:20.177Z,15.02
2022-11-02T13:26:37.901Z,15.05
2022-11-02T13:29:51.022Z,15.05
2022-11-02T13:33:07.979Z,14.92
2022-11-02T13:36:17.475Z,14.92
2022-11-02T13:39:39.986Z,14.88
2022-11-02T13:43:38.362Z,14.57
2022-11-02T13:47:15.322Z,14.49
2022-11-02T13:50:29.257Z,14.66
2022-11-02T13:53:43.897Z,14.79
2022-11-02T13:56:55.403Z,14.62
2022-11-02T14:00:01.763Z,14.51
2022-11-02T14:03:21.326Z,14.34
2022-11-02T14:06:29.995Z,14.04
2022-11-02T14:09:43.137Z,14.16
2022-11-02T14:12:51.259Z,14.43
2022-11-02T14:15:56.984Z,14.37
2022-11-02T14:19:28.290Z,14.38
2022-11-02T14:22:36.441Z,14.31
2022-11-02T14:25:51.311Z,14.21
2022-11-02T14:28:56.959Z,13.95
2022-11-02T14:32:20.543Z,13.83
2022-11-02T14:35:44.269Z,13.81
2022-11-02T14:39:11.271Z,13.54
2022-11-02T14:42:49.968Z,13.33
2022-11-02T14:46:21.377Z,13.18
2022-11-02T14:49:34.036Z,12.97
2022-11-02T14:52:41.511Z,12.97
2022-11-02T14:55:58.579Z,12.92
2022-11-02T14:59:04.963Z,12.87
2022-11-02T15:02:26.396Z,12.60
2022-11-02T15:05:38.931Z,12.52
2022-11-02T15:08:56.024Z,12.32
2022-11-02T15:12:23.373Z,12.12
2022-11-02T15:15:35.876Z,12.04
2022-11-02T15:18:42.654Z,11.83
2022-11-02T15:21:49.024Z,11.93
2022-11-02T15:24:59.685Z,11.94
2022-11-02T15:28:31.172Z,11.83
2022-11-02T15:31:59.944Z,11.70
2022-11-02T15:35:06.982Z,11.68
2022-11-02T15:38:19.959Z,11.64
2022-11-02T15:41:41.682Z,11.42
2022-11-02T15:45:46.852Z,11.47
2022-11-02T15:49:06.706Z,11.45
2022-11-02T15:53:01.621Z,11.48
2022-11-02T15:56:29.872Z,11.55
2022-11-02T16:00:07.087Z,11.53
2022-11-02T16:03:21.605Z,11.55
2022-11-02T16:06:31.955Z,11.59
2022-11-02T16:09:41.355Z,11.63
2022-11-02T16:12:47.104Z,11.56
2022-11-02T16:16:04.510Z,11.55
2022-11-02T16:19:23.589Z,11.53
2022-11-02T16:22:30.739Z,11.51
2022-11-02T16:25:40.976Z,11.50
2022-11-02T16:28:54.179Z,11.43
2022-11-02T16:32:00.158Z,11.28
2022-11-02T16:35:19.867Z,11.30
2022-11-02T16:38:27.284Z,11.25
2022-11-02T16:41:38.987Z,11.30
2022-11-02T16:47:55.164Z,11.27
2022-11-02T16:51:19.308Z,11.30
2022-11-02T16:54:44.153Z,11.14
2022-11-02T16:57:49.832Z,11.04
2022-11-02T17:01:06.324Z,11.06
2022-11-02T17:04:24.625Z,11.05
2022-11-02T17:07:39.172Z,11.07
2022-11-02T17:10:47.746Z,11.05
2022-11-02T17:14:00.219Z,11.07
2022-11-02T17:17:38.329Z,11.04
2022-11-02T17:20:44.115Z,10.99
2022-11-02T17:23:54.098Z,11.00
2022-11-02T17:27:20.963Z,11.00
2022-11-02T17:30:52.779Z,11.03
2022-11-02T17:34:09.311Z,10.93
2022-11-02T17:37:27.590Z,10.82
2022-11-02T17:40:35.744Z,10.79
2022-11-02T17:43:41.295Z,10.70
2022-11-02T17:46:46.943Z,10.58
2022-11-02T17:49:52.465Z,10.53
2022-11-02T17:52:59.837Z,10.51
2022-11-02T17:56:08.829Z,10.46
2022-11-02T17:59:17.206Z,10.41
2022-11-02T18:02:22.831Z,10.39
2022-11-02T18:05:31.679Z,10.34
2022-11-02T18:08:58.146Z,10.28
2022-11-02T18:12:06.746Z,10.28
2022-11-02T18:15:23.380Z,10.25
2022-11-02T18:18:28.961Z,10.25
2022-11-02T18:21:34.451Z,10.23
2022-11-02T18:24:40.845Z,10.16
2022-11-02T18:27:50.273Z,10.12
2022-11-02T18:30:57.027Z,10.12
2022-11-02T18:34:02.687Z,10.13
2022-11-02T18:37:08.309Z,10.08
2022-11-02T18:40:17.848Z,10.09
2022-11-02T18:43:26.051Z,10.10
2022-11-02T18:46:32.536Z,10.07
2022-11-02T18:49:38.174Z,10.01
2022-11-02T18:52:51.864Z,10.00
2022-11-02T18:55:57.643Z,9.93
2022-11-02T18:59:06.744Z,9.89
2022-11-02T19:02:14.706Z,9.81
2022-11-02T19:05:33.230Z,9.71
2022-11-02T19:08:51.095Z,9.71
2022-11-02T19:12:05.934Z,9.67
2022-11-02T19:15:14.326Z,9.71
2022-11-02T19:18:19.928Z,9.74
2022-11-02T19:21:25.618Z,9.73
2022-11-02T19:24:32.033Z,9.79
2022-11-02T19:27:37.711Z,9.90
2022-11-02T19:30:45.890Z,9.93
2022-11-02T19:34:01.242Z,9.97
2022-11-02T19:37:14.892Z,10.03
2022-11-02T19:40:20.820Z,10.03
2022-11-02T19:43:26.626Z,10.08
2022-11-02T19:46:35.339Z,10.13
2022-11-02T19:49:41.319Z,10.13
2022-11-02T19:52:51.188Z,10.08
2022-11-02T19:55:58.919Z,10.11
2022-11-02T19:59:06.151Z,10.19
2022-11-02T20:02:15.263Z,10.16
2022-11-02T20:05:32.624Z,10.08
2022-11-02T20:08:39.129Z,10.06
2022-11-02T20:11:45.679Z,10.03
2022-11-02T20:14:51.279Z,9.93
2022-11-02T20:18:18.292Z,9.83
2022-11-02T20:21:32.359Z,9.79
2022-11-02T20:24:39.972Z,9.77
2022-11-02T20:27:45.779Z,9.67
2022-11-02T20:30:51.491Z,9.63
2022-11-02T20:33:59.752Z,9.60
2022-11-02T20:37:06.747Z,9.57
2022-11-02T20:40:16.086Z,9.60
2022-11-02T20:43:22.240Z,9.54
2022-11-02T20:46:37.528Z,9.59
2022-11-02T20:49:50.959Z,9.61
2022-11-02T20:52:58.826Z,9.57
2022-11-02T20:56:17.283Z,9.58
2022-11-02T20:59:36.549Z,9.63
2022-11-02T21:02:42.030Z,9.65
2022-11-02T21:05:52.736Z,9.70
2022-11-02T21:09:09.160Z,9.69
2022-11-02T21:12:34.020Z,9.71
2022-11-02T21:15:39.810Z,9.68
2022-11-02T21:18:45.652Z,9.86
2022-11-02T21:21:59.411Z,9.93
2022-11-02T21:25:10.468Z,9.98
2022-11-02T21:28:16.165Z,10.03
2022-11-02T21:31:26.282Z,10.07
2022-11-02T21:34:31.865Z,10.02
2022-11-02T21:37:40.083Z,9.90
2022-11-02T21:40:48.552Z,9.98
2022-11-02T21:43:55.752Z,10.06
2022-11-02T21:47:01.411Z,10.08
2022-11-02T21:50:10.572Z,10.03
2022-11-02T21:53:18.830Z,9.90
2022-11-02T21:56:34.320Z,9.83
2022-11-02T21:59:39.865Z,9.78
2022-11-02T22:02:42.920Z,9.70
2022-11-02T22:05:59.728Z,9.64
2022-11-02T22:09:11.035Z,9.64
2022-11-02T22:12:29.026Z,9.53
2022-11-02T22:15:37.483Z,9.30
2022-11-02T22:18:45.781Z,9.20
2022-11-02T22:21:51.609Z,9.05
2022-11-02T22:25:00.280Z,8.97
2022-11-02T22:28:06.340Z,8.88
2022-11-02T22:31:16.242Z,8.83
2022-11-02T22:34:22.053Z,8.81
2022-11-02T22:37:40.249Z,8.81
2022-11-02T22:40:48.721Z,8.73
2022-11-02T22:43:57.966Z,8.69
2022-11-02T22:47:03.970Z,8.68
2022-11-02T22:50:11.277Z,8.73
2022-11-02T22:53:17.041Z,8.66
2022-11-02T22:56:27.447Z,8.78
2022-11-02T22:59:33.331Z,8.82
2022-11-02T23:02:39.283Z,8.93
2022-11-02T23:05:46.320Z,9.01
2022-11-02T23:08:54.584Z,8.95
2022-11-02T23:12:03.223Z,9.01
2022-11-02T23:15:09.991Z,9.02
2022-11-02T23:18:15.901Z,8.97
2022-11-02T23:21:19.005Z,8.94
2022-11-02T23:24:37.209Z,8.97
2022-11-02T23:28:00.884Z,8.95
2022-11-02T23:31:18.896Z,8.85
2022-11-02T23:34:24.460Z,8.78
2022-11-02T23:37:27.555Z,8.69
2022-11-02T23:40:33.707Z,8.64
2022-11-02T23:43:42.446Z,8.58
2022-11-02T23:46:51.376Z,8.48
2022-11-02T23:49:56.967Z,8.33
2022-11-02T23:53:15.011Z,8.19
2022-11-02T23:56:47.200Z,8.16
2022-11-02T23:59:55.660Z,8.23
